Time;durP1;ratioP1;P1;durP2;ratioP2;P2;SDS_P1;SDS_P2;PMS_P1;PMS_P2;Temp;Humidity;BMP_temperature;BMP_pressure;BME280_temperature;BME280_humidity;BME280_pressure;Samples;Min_cycle;Max_cycle;Signal;HPM_P1;HPM_P2
2022/01/30 00:00:22;;;;;;;2.25;1.58;;;11.20;99.90;;;;;;5053801;28;20052;-76
2022/01/30 00:02:55;;;;;;;1.92;1.20;;;9.50;99.90;;;;;;5048153;28;20554;-84
2022/01/30 00:05:30;;;;;;;1.55;1.02;;;11.00;99.90;;;;;;5072670;28;20150;-84
2022/01/30 00:08:14;;;;;;;2.95;1.13;;;11.10;99.90;;;;;;5053742;28;20044;-79
2022/01/30 00:10:50;;;;;;;4.70;1.17;;;9.80;99.90;;;;;;5066773;28;20044;-78
2022/01/30 00:13:21;;;;;;;3.33;1.50;;;11.00;99.90;;;;;;5050018;28;20036;-78
2022/01/30 00:15:53;;;;;;;3.00;1.27;;;11.10;99.90;;;;;;5070445;28;20603;-77
2022/01/30 00:19:25;;;;;;;1.67;1.10;;;10.90;99.90;;;;;;5052169;28;20071;-78
2022/01/30 00:21:59;;;;;;;1.90;1.42;;;10.40;99.90;;;;;;5057840;28;20583;-78
2022/01/30 00:24:43;;;;;;;1.95;1.70;;;10.60;99.90;;;;;;5069860;28;20144;-77
2022/01/30 00:27:11;;;;;;;1.50;1.10;;;10.30;99.90;;;;;;5076251;28;20610;-78
2022/01/30 00:29:40;;;;;;;4.93;1.10;;;11.50;99.90;;;;;;5078101;28;20048;-77
2022/01/30 00:32:17;;;;;;;2.70;1.48;;;10.70;99.90;;;;;;5053340;28;20060;-81
2022/01/30 00:34:43;;;;;;;3.13;1.58;;;11.00;99.90;;;;;;5081992;28;20048;-77
2022/01/30 00:37:22;;;;;;;4.13;1.48;;;10.70;99.90;;;;;;5064343;28;20458;-85
2022/01/30 00:39:48;;;;;;;3.75;1.20;;;9.60;99.90;;;;;;5081476;28;20084;-82
2022/01/30 00:42:17;;;;;;;1.23;1.13;;;10.70;99.90;;;;;;5058989;28;20048;-81
2022/01/30 00:44:48;;;;;;;1.73;1.20;;;10.90;99.90;;;;;;5075765;28;20052;-81
2022/01/30 00:47:14;;;;;;;3.08;1.20;;;10.60;99.90;;;;;;5061102;28;20048;-79
2022/01/30 00:49:40;;;;;;;1.95;1.17;;;10.20;99.90;;;;;;5074284;28;20044;-80
2022/01/30 00:52:10;;;;;;;1.20;0.85;;;10.40;99.90;;;;;;5054837;28;20597;-79
2022/01/30 00:54:37;;;;;;;1.75;1.13;;;10.30;99.90;;;;;;5071833;28;20036;-80
2022/01/30 00:57:03;;;;;;;1.73;1.30;;;10.50;99.90;;;;;;5074420;28;20087;-79
2022/01/30 00:59:29;;;;;;;3.10;1.20;;;10.70;99.90;;;;;;5054819;28;20036;-79
2022/01/30 01:01:55;;;;;;;1.40;0.80;;;10.40;99.90;;;;;;5074138;28;20494;-79
2022/01/30 01:04:24;;;;;;;2.78;1.20;;;10.90;99.90;;;;;;5055664;28;20059;-84
2022/01/30 01:06:50;;;;;;;1.55;1.02;;;9.70;99.90;;;;;;5055253;28;20025;-80
2022/01/30 01:09:21;;;;;;;0.68;0.68;;;9.30;99.90;;;;;;5060191;28;20044;-79
2022/01/30 01:25:34;;;;;;;2.08;0.88;;;9.20;99.90;;;;;;5073114;28;20045;-76
2022/01/30 01:28:03;;;;;;;0.88;0.73;;;10.30;99.90;;;;;;5055589;28;20040;-76
2022/01/30 01:30:31;;;;;;;0.77;0.77;;;10.50;99.90;;;;;;5054348;28;20044;-81
2022/01/30 01:33:06;;;;;;;2.45;0.90;;;10.70;99.90;;;;;;5074280;28;20151;-79
2022/01/30 01:35:43;;;;;;;1.75;1.30;;;10.40;99.90;;;;;;5051576;28;20044;-82
2022/01/30 01:38:12;;;;;;;1.13;0.85;;;10.90;99.90;;;;;;5057795;28;20086;-77
2022/01/30 01:40:51;;;;;;;2.83;1.55;;;10.20;99.90;;;;;;5055158;28;20086;-79
2022/01/30 01:43:20;;;;;;;1.98;1.02;;;10.40;99.90;;;;;;5059492;28;20045;-77
2022/01/30 01:45:52;;;;;;;1.02;0.60;;;8.60;99.90;;;;;;5060132;28;20059;-76
2022/01/30 01:48:20;;;;;;;0.95;0.80;;;10.80;99.90;;;;;;5057681;28;20083;-76
2022/01/30 01:51:05;;;;;;;1.67;0.95;;;10.60;99.90;;;;;;5057208;28;20049;-76
2022/01/30 01:53:33;;;;;;;0.88;0.82;;;10.70;99.90;;;;;;5057253;28;20040;-76
2022/01/30 01:55:59;;;;;;;2.80;1.30;;;10.40;99.90;;;;;;5072523;28;20083;-76
2022/01/30 01:58:30;;;;;;;1.40;1.00;;;10.20;99.90;;;;;;5071143;28;20049;-76
2022/01/30 02:00:55;;;;;;;1.05;0.90;;;10.40;99.90;;;;;;5060605;28;20069;-76
2022/01/30 02:03:22;;;;;;;0.88;0.70;;;10.20;99.90;;;;;;5060592;28;20139;-75
2022/01/30 02:05:54;;;;;;;0.73;0.63;;;10.30;99.90;;;;;;5076911;28;20506;-76
2022/01/30 02:08:45;;;;;;;1.00;0.73;;;11.00;99.90;;;;;;5061771;28;20047;-76
2022/01/30 02:11:56;;;;;;;1.00;0.80;;;10.20;99.90;;;;;;5074837;28;20048;-76
2022/01/30 02:27:25;;;;;;;1.67;0.85;;;10.20;99.90;;;;;;5072517;28;20044;-76
2022/01/30 02:29:51;;;;;;;1.38;0.85;;;10.20;99.90;;;;;;5056626;28;20048;-76
2022/01/30 02:32:20;;;;;;;1.55;0.98;;;10.20;99.90;;;;;;5067962;28;20174;-76
2022/01/30 02:34:52;;;;;;;1.13;0.68;;;10.30;99.90;;;;;;5056249;28;20491;-76
2022/01/30 02:37:33;;;;;;;1.90;1.05;;;10.40;99.90;;;;;;5055015;28;20122;-76
2022/01/30 02:39:59;;;;;;;1.52;1.10;;;10.30;99.90;;;;;;5051320;28;20045;-75
2022/01/30 02:42:32;;;;;;;0.85;0.77;;;10.70;99.90;;;;;;5051128;28;20483;-76
2022/01/30 02:45:01;;;;;;;2.25;1.17;;;10.90;99.90;;;;;;5053045;28;20095;-78
2022/01/30 02:47:53;;;;;;;2.47;0.90;;;10.50;99.90;;;;;;5029524;28;20384;-85
2022/01/30 02:53:09;;;;;;;1.00;0.77;;;10.10;99.90;;;;;;5049335;28;20308;-76
2022/01/30 02:55:36;;;;;;;2.33;0.90;;;10.30;99.90;;;;;;5037550;28;20165;-76
2022/01/30 02:58:02;;;;;;;1.63;1.02;;;10.30;99.90;;;;;;5033509;28;20154;-76
2022/01/30 03:00:28;;;;;;;2.33;1.45;;;10.20;99.90;;;;;;5041865;28;20045;-80
2022/01/30 03:02:57;;;;;;;1.45;0.95;;;10.30;99.90;;;;;;5053162;28;20124;-81
2022/01/30 03:05:28;;;;;;;1.48;0.90;;;10.90;99.90;;;;;;5051146;28;20307;-79
2022/01/30 03:08:06;;;;;;;1.97;0.90;;;10.70;99.90;;;;;;5053148;28;20155;-82
2022/01/30 03:10:31;;;;;;;1.48;0.80;;;10.30;99.90;;;;;;5034456;28;20064;-76
2022/01/30 03:13:00;;;;;;;2.38;0.90;;;10.40;99.90;;;;;;5028732;28;20067;-76
2022/01/30 03:15:28;;;;;;;3.17;1.00;;;9.20;99.90;;;;;;5049963;28;20562;-78
2022/01/30 03:17:54;;;;;;;2.13;1.10;;;10.30;99.90;;;;;;5032502;28;20591;-77
2022/01/30 03:20:21;;;;;;;2.47;1.45;;;10.20;99.90;;;;;;5051200;28;20149;-77
2022/01/30 03:22:50;;;;;;;3.17;1.35;;;10.30;99.90;;;;;;5034085;28;20045;-77
2022/01/30 03:25:16;;;;;;;3.03;1.42;;;11.40;99.90;;;;;;5028553;28;20080;-77
2022/01/30 03:27:51;;;;;;;5.45;1.75;;;10.50;99.90;;;;;;5050574;28;20206;-77
2022/01/30 03:30:24;;;;;;;3.00;1.45;;;11.20;99.90;;;;;;5041541;28;20046;-77
2022/01/30 03:32:50;;;;;;;1.52;1.10;;;10.40;99.90;;;;;;5031583;28;20045;-76
2022/01/30 03:35:18;;;;;;;3.50;1.40;;;10.40;99.90;;;;;;5052060;28;20490;-77
2022/01/30 03:37:46;;;;;;;2.08;1.20;;;10.30;99.90;;;;;;5042503;28;20045;-76
2022/01/30 03:40:12;;;;;;;3.15;1.42;;;10.80;99.90;;;;;;5027675;28;20060;-77
2022/01/30 03:42:39;;;;;;;1.27;0.90;;;10.60;99.90;;;;;;5050602;28;20122;-78
2022/01/30 03:45:05;;;;;;;1.83;1.30;;;10.30;99.90;;;;;;5054723;28;20036;-76
2022/01/30 03:47:31;;;;;;;4.88;1.83;;;11.30;99.90;;;;;;5069509;28;20044;-77
2022/01/30 03:49:57;;;;;;;2.42;1.13;;;10.30;99.90;;;;;;5091837;28;20408;-77
2022/01/30 03:52:23;;;;;;;1.80;1.20;;;10.20;99.90;;;;;;5073967;28;20302;-76
2022/01/30 03:54:49;;;;;;;2.70;1.42;;;10.70;99.90;;;;;;5084734;28;20040;-77
2022/01/30 03:57:15;;;;;;;2.10;1.00;;;9.80;99.90;;;;;;5073838;28;20118;-78
2022/01/30 03:59:41;;;;;;;2.67;1.20;;;11.00;99.90;;;;;;5091555;28;20126;-77
2022/01/30 04:02:07;;;;;;;0.93;0.70;;;9.90;99.90;;;;;;5066800;28;20461;-77
2022/01/30 04:04:35;;;;;;;1.85;1.27;;;10.40;99.90;;;;;;5067786;28;20032;-77
2022/01/30 04:07:02;;;;;;;1.67;1.08;;;10.60;99.90;;;;;;5070751;28;20070;-77
2022/01/30 04:09:28;;;;;;;1.20;0.88;;;10.40;99.90;;;;;;5072791;28;20055;-77
2022/01/30 04:11:54;;;;;;;3.92;1.67;;;11.10;99.90;;;;;;5073886;28;20463;-77
2022/01/30 04:14:20;;;;;;;2.78;1.30;;;11.60;99.90;;;;;;5070015;28;20051;-77
2022/01/30 04:16:47;;;;;;;1.80;1.42;;;10.80;99.90;;;;;;5072329;28;20110;-77
2022/01/30 04:19:13;;;;;;;1.63;0.88;;;12.30;99.90;;;;;;5075407;28;20490;-77
2022/01/30 04:21:39;;;;;;;1.80;1.05;;;11.30;99.90;;;;;;5070178;28;20082;-76
2022/01/30 04:24:09;;;;;;;2.08;0.93;;;10.30;99.90;;;;;;5062696;28;20036;-77
2022/01/30 04:26:38;;;;;;;1.60;1.17;;;10.40;99.90;;;;;;5072546;28;20069;-77
2022/01/30 04:29:04;;;;;;;1.10;0.82;;;10.70;99.90;;;;;;5071963;28;20042;-78
2022/01/30 04:31:33;;;;;;;1.75;1.15;;;10.40;99.90;;;;;;5073055;28;20045;-77
2022/01/30 04:33:59;;;;;;;1.70;1.10;;;10.10;99.90;;;;;;5064221;28;20131;-77
2022/01/30 04:36:30;;;;;;;1.95;1.20;;;10.40;99.90;;;;;;5088140;28;20063;-77
2022/01/30 04:53:11;;;;;;;2.92;1.13;;;9.30;99.90;;;;;;5085259;28;20534;-77
2022/01/30 04:57:57;;;;;;;2.20;1.38;;;10.10;99.90;;;;;;5089361;28;20076;-77
2022/01/30 05:00:32;;;;;;;2.05;1.55;;;10.10;99.90;;;;;;5085074;28;20068;-77
2022/01/30 05:08:15;;;;;;;1.23;1.02;;;10.40;99.90;;;;;;5089239;28;20051;-77
2022/01/30 05:10:41;;;;;;;2.30;1.42;;;10.30;99.90;;;;;;5073196;28;20529;-77
2022/01/30 05:13:11;;;;;;;2.97;1.55;;;10.00;99.90;;;;;;5065890;28;20101;-77
2022/01/30 05:15:39;;;;;;;3.03;1.63;;;10.00;99.90;;;;;;5082748;28;20161;-77
2022/01/30 05:18:08;;;;;;;3.45;1.20;;;9.90;99.90;;;;;;5069292;28;20090;-76
2022/01/30 05:20:35;;;;;;;5.18;1.40;;;10.10;99.90;;;;;;5077773;28;20560;-76
2022/01/30 05:23:01;;;;;;;3.53;1.77;;;9.90;99.90;;;;;;5073212;28;20457;-77
2022/01/30 05:25:27;;;;;;;2.42;1.00;;;9.90;99.90;;;;;;5068734;28;20301;-76
2022/01/30 05:27:58;;;;;;;3.80;1.38;;;9.70;99.90;;;;;;5071329;28;20052;-77
2022/01/30 05:30:27;;;;;;;2.43;1.93;;;9.60;99.90;;;;;;5079909;28;20036;-76
2022/01/30 05:32:56;;;;;;;3.70;1.85;;;9.60;99.90;;;;;;5064655;28;20051;-77
2022/01/30 05:35:22;;;;;;;2.80;1.67;;;9.70;99.90;;;;;;5069128;28;20123;-76
2022/01/30 05:37:48;;;;;;;2.47;1.48;;;9.70;99.90;;;;;;5085506;27;20041;-77
2022/01/30 05:40:14;;;;;;;3.17;2.00;;;10.10;99.90;;;;;;5094384;28;20048;-77
2022/01/30 05:42:41;;;;;;;5.72;2.88;;;8.80;99.90;;;;;;5071189;28;20053;-76
2022/01/30 05:45:15;;;;;;;2.97;1.60;;;9.70;99.90;;;;;;5091035;28;20040;-76
2022/01/30 05:47:56;;;;;;;5.72;2.67;;;8.80;99.90;;;;;;5086952;28;20051;-76
2022/01/30 05:50:22;;;;;;;6.45;3.03;;;9.30;99.90;;;;;;5077326;28;20135;-76
2022/01/30 05:52:48;;;;;;;5.47;2.03;;;10.70;99.90;;;;;;5086112;28;20045;-76
2022/01/30 05:55:14;;;;;;;13.95;3.13;;;9.60;99.90;;;;;;5076870;28;20040;-76
2022/01/30 05:57:40;;;;;;;7.45;2.00;;;9.60;99.90;;;;;;5066262;28;20040;-76
2022/01/30 06:00:09;;;;;;;4.18;1.75;;;9.90;99.90;;;;;;5075326;28;20037;-76
2022/01/30 06:02:36;;;;;;;5.22;2.22;;;9.70;99.90;;;;;;5076410;28;20259;-76
2022/01/30 06:05:02;;;;;;;5.78;2.80;;;9.60;99.90;;;;;;5072724;28;20034;-76
2022/01/30 06:07:31;;;;;;;7.43;2.20;;;9.60;99.90;;;;;;5085766;28;20555;-76
2022/01/30 06:09:57;;;;;;;5.63;2.78;;;9.40;99.90;;;;;;5070518;28;20621;-76
2022/01/30 06:12:23;;;;;;;5.68;2.60;;;10.30;99.90;;;;;;5065678;28;20036;-76
2022/01/30 06:14:49;;;;;;;8.55;3.45;;;10.70;99.90;;;;;;5091060;28;20274;-76
2022/01/30 06:17:17;;;;;;;7.45;2.42;;;9.50;99.90;;;;;;5069345;28;20411;-76
2022/01/30 06:19:43;;;;;;;7.60;2.92;;;9.50;99.90;;;;;;5074926;28;20067;-76
2022/01/30 06:22:09;;;;;;;8.25;3.42;;;9.50;99.90;;;;;;5072176;28;20055;-76
2022/01/30 06:24:34;;;;;;;4.18;2.03;;;10.00;99.90;;;;;;5072441;28;20047;-76
2022/01/30 06:27:00;;;;;;;5.82;1.95;;;9.40;99.90;;;;;;5068131;28;20036;-77
2022/01/30 06:29:26;;;;;;;10.45;2.63;;;9.50;99.90;;;;;;5074948;28;20097;-77
2022/01/30 06:31:53;;;;;;;15.63;3.60;;;9.50;99.90;;;;;;5079087;28;20040;-76
2022/01/30 06:34:19;;;;;;;8.18;2.05;;;9.00;99.90;;;;;;5067140;28;20051;-77
2022/01/30 06:36:45;;;;;;;4.72;2.60;;;9.40;99.90;;;;;;5084915;28;20190;-77
2022/01/30 06:39:11;;;;;;;5.45;2.90;;;9.50;99.90;;;;;;5087489;28;20132;-77
2022/01/30 06:41:37;;;;;;;7.18;3.40;;;10.10;99.90;;;;;;5077028;28;20044;-77
2022/01/30 06:44:05;;;;;;;5.15;2.05;;;10.10;99.90;;;;;;5074487;28;20550;-77
2022/01/30 06:46:30;;;;;;;7.22;2.38;;;9.30;99.90;;;;;;5083170;28;20047;-77
2022/01/30 06:48:56;;;;;;;10.02;2.03;;;9.40;99.90;;;;;;5075866;28;20048;-77
2022/01/30 06:51:22;;;;;;;3.83;1.95;;;9.40;99.90;;;;;;5076050;28;20048;-77
2022/01/30 06:53:48;;;;;;;8.15;3.20;;;9.50;99.90;;;;;;5077140;28;20129;-77
2022/01/30 06:56:13;;;;;;;7.13;2.97;;;9.30;99.90;;;;;;5089605;28;20068;-77
2022/01/30 06:58:39;;;;;;;6.45;2.08;;;9.50;99.90;;;;;;5091019;28;20503;-77
2022/01/30 07:01:05;;;;;;;9.23;2.40;;;9.20;99.90;;;;;;5074344;28;20319;-77
2022/01/30 07:03:31;;;;;;;8.00;1.98;;;9.30;99.90;;;;;;5085364;28;20040;-77
2022/01/30 07:05:57;;;;;;;8.88;2.80;;;9.40;99.90;;;;;;5066600;28;20056;-77
2022/01/30 07:08:25;;;;;;;5.13;1.63;;;9.20;99.90;;;;;;5067599;28;20145;-77
2022/01/30 07:10:51;;;;;;;8.35;1.83;;;9.60;99.90;;;;;;5077716;28;20130;-77
2022/01/30 07:13:19;;;;;;;3.03;2.17;;;9.20;99.90;;;;;;5090871;28;20052;-77
2022/01/30 07:15:45;;;;;;;10.23;2.50;;;9.40;99.90;;;;;;5073558;28;20037;-77
2022/01/30 07:18:11;;;;;;;8.07;2.20;;;9.10;99.90;;;;;;5069292;28;20671;-77
2022/01/30 07:20:37;;;;;;;5.35;2.28;;;9.40;99.90;;;;;;5078094;28;20047;-78
2022/01/30 07:23:03;;;;;;;7.68;3.38;;;9.40;99.90;;;;;;5075613;28;20040;-77
2022/01/30 07:25:29;;;;;;;5.18;2.08;;;10.10;99.90;;;;;;5074961;28;20035;-77
2022/01/30 07:27:57;;;;;;;5.03;1.90;;;8.90;99.90;;;;;;5073658;28;20056;-77
2022/01/30 07:30:23;;;;;;;10.93;2.53;;;8.30;99.90;;;;;;5069785;28;20048;-77
2022/01/30 07:32:48;;;;;;;15.02;4.10;;;9.50;99.90;;;;;;5073025;28;20451;-77
2022/01/30 07:35:14;;;;;;;12.20;4.97;;;8.80;99.90;;;;;;5067633;28;20136;-77
2022/01/30 07:37:40;;;;;;;23.63;7.28;;;9.00;99.90;;;;;;5084934;28;20051;-76
2022/01/30 07:40:07;;;;;;;15.98;5.13;;;9.70;99.90;;;;;;5063718;28;20040;-77
2022/01/30 07:42:33;;;;;;;11.10;3.97;;;9.10;99.90;;;;;;5066515;28;20099;-76
2022/01/30 07:45:00;;;;;;;11.63;3.42;;;9.20;99.90;;;;;;5083392;28;20036;-81
2022/01/30 07:47:35;;;;;;;19.50;3.85;;;8.90;99.90;;;;;;5071196;28;20057;-82
2022/01/30 07:50:00;;;;;;;5.22;2.75;;;8.90;99.90;;;;;;5076884;28;20033;-77
2022/01/30 07:52:30;;;;;;;14.07;3.83;;;8.90;99.90;;;;;;5090439;28;20044;-79
2022/01/30 07:55:08;;;;;;;8.98;2.70;;;9.30;99.90;;;;;;5074753;28;20125;-83
2022/01/30 07:57:46;;;;;;;9.52;2.90;;;8.90;99.90;;;;;;5065816;28;20040;-89
2022/01/30 08:00:38;;;;;;;7.82;3.08;;;9.50;99.90;;;;;;5069947;28;20833;-88
2022/01/30 08:03:04;;;;;;;9.50;2.58;;;9.00;99.90;;;;;;5065727;28;20559;-77
2022/01/30 08:05:30;;;;;;;7.78;3.28;;;9.40;99.90;;;;;;5071343;28;20051;-78
2022/01/30 08:07:59;;;;;;;6.20;2.70;;;9.00;99.90;;;;;;5070135;28;20063;-81
2022/01/30 08:10:25;;;;;;;23.85;3.88;;;9.20;99.90;;;;;;5075029;28;20118;-80
2022/01/30 08:12:54;;;;;;;8.80;2.00;;;9.10;99.90;;;;;;5063388;28;20526;-83
2022/01/30 08:15:20;;;;;;;5.40;2.03;;;9.40;99.90;;;;;;5093698;28;20044;-79
2022/01/30 08:17:47;;;;;;;5.95;2.35;;;9.30;99.90;;;;;;5071091;28;20045;-78
2022/01/30 08:20:13;;;;;;;8.05;2.20;;;9.20;99.90;;;;;;5082764;28;20060;-79
2022/01/30 08:22:47;;;;;;;9.18;2.75;;;10.10;99.90;;;;;;5071921;28;20274;-79
2022/01/30 08:25:16;;;;;;;4.28;1.73;;;9.10;99.90;;;;;;5067421;28;20043;-77
2022/01/30 08:27:43;;;;;;;6.30;2.47;;;9.10;99.90;;;;;;5070728;28;20603;-77
2022/01/30 08:30:11;;;;;;;15.18;2.78;;;9.50;99.90;;;;;;5091884;28;20067;-77
2022/01/30 08:32:39;;;;;;;4.60;1.80;;;9.50;99.90;;;;;;5090417;28;20044;-77
2022/01/30 08:35:09;;;;;;;2.67;1.70;;;9.10;99.90;;;;;;5079443;28;20043;-77
2022/01/30 08:37:35;;;;;;;6.28;2.60;;;8.90;99.90;;;;;;5068732;28;20064;-79
2022/01/30 08:40:05;;;;;;;9.07;2.80;;;8.90;99.90;;;;;;5080167;28;20040;-78
2022/01/30 08:42:31;;;;;;;3.97;2.03;;;8.30;99.90;;;;;;5091772;28;20131;-79
2022/01/30 08:45:00;;;;;;;5.55;1.50;;;9.30;99.90;;;;;;5082956;28;20518;-80
2022/01/30 08:47:31;;;;;;;8.00;2.35;;;9.00;99.90;;;;;;5103082;28;20056;-85
2022/01/30 08:49:57;;;;;;;4.75;1.88;;;7.60;99.90;;;;;;5089402;28;20060;-78
2022/01/30 08:52:23;;;;;;;14.48;5.57;;;10.00;99.90;;;;;;5105885;28;20626;-79
2022/01/30 08:54:52;;;;;;;12.68;5.00;;;9.40;99.90;;;;;;5100868;28;20040;-78
2022/01/30 08:57:19;;;;;;;16.63;3.60;;;9.00;99.90;;;;;;5082277;28;20048;-79
2022/01/30 08:59:48;;;;;;;15.38;5.47;;;9.40;99.90;;;;;;5091646;28;20044;-85
2022/01/30 09:02:14;;;;;;;35.85;13.27;;;10.00;99.90;;;;;;5106767;28;20070;-78
2022/01/30 09:04:39;;;;;;;13.43;5.50;;;9.80;99.90;;;;;;5093259;28;20036;-78
2022/01/30 09:07:06;;;;;;;9.88;4.80;;;9.10;99.90;;;;;;5084252;28;20125;-81
2022/01/30 09:09:31;;;;;;;12.90;4.53;;;9.60;99.90;;;;;;5102374;28;20040;-77
2022/01/30 09:12:02;;;;;;;10.05;3.15;;;9.90;99.90;;;;;;5081419;28;20036;-78
2022/01/30 09:14:29;;;;;;;11.63;3.47;;;8.90;99.90;;;;;;5103553;28;20995;-78
2022/01/30 09:16:55;;;;;;;12.90;2.92;;;8.80;99.90;;;;;;5080710;28;20238;-76
2022/01/30 09:19:26;;;;;;;31.27;9.70;;;8.70;99.90;;;;;;5075212;28;20552;-77
2022/01/30 09:21:52;;;;;;;17.92;6.60;;;9.00;99.90;;;;;;5094073;28;20048;-78
2022/01/30 09:24:22;;;;;;;8.70;3.50;;;8.80;99.90;;;;;;5071880;28;20541;-77
2022/01/30 09:26:48;;;;;;;12.52;4.65;;;8.90;99.90;;;;;;5092742;28;20525;-77
2022/01/30 09:29:14;;;;;;;9.65;3.08;;;9.20;99.90;;;;;;5071552;28;20044;-77
2022/01/30 09:31:39;;;;;;;10.50;2.83;;;8.70;99.90;;;;;;5072146;28;20033;-76
2022/01/30 09:34:06;;;;;;;10.20;3.28;;;8.90;99.90;;;;;;5075379;28;20033;-77
2022/01/30 09:36:34;;;;;;;9.38;3.30;;;9.40;99.90;;;;;;5075652;28;20475;-80
2022/01/30 09:39:01;;;;;;;6.20;3.13;;;8.90;99.90;;;;;;5074191;28;20037;-79
2022/01/30 09:41:34;;;;;;;8.13;3.45;;;8.80;99.90;;;;;;5069868;28;20044;-79
2022/01/30 09:44:01;;;;;;;12.60;4.47;;;9.10;99.90;;;;;;5070707;28;20482;-79
2022/01/30 09:46:32;;;;;;;9.05;3.10;;;9.10;99.90;;;;;;5072370;28;20056;-78
2022/01/30 09:48:59;;;;;;;11.02;3.15;;;9.20;99.90;;;;;;5072303;28;20178;-79
2022/01/30 09:51:24;;;;;;;11.68;2.95;;;9.30;99.90;;;;;;5071177;28;20042;-78
2022/01/30 09:53:50;;;;;;;6.40;2.88;;;9.10;99.90;;;;;;5074474;28;20036;-76
2022/01/30 09:56:18;;;;;;;4.05;2.30;;;8.10;99.90;;;;;;5074336;28;20063;-78
2022/01/30 09:58:48;;;;;;;7.90;1.75;;;8.90;99.90;;;;;;5078295;28;20077;-78
2022/01/30 10:01:14;;;;;;;9.05;2.83;;;9.10;99.90;;;;;;5078898;28;20112;-78
2022/01/30 10:03:42;;;;;;;6.55;3.22;;;9.10;99.90;;;;;;5080075;28;20127;-78
2022/01/30 10:06:21;;;;;;;5.05;2.58;;;9.60;99.90;;;;;;5078097;28;20040;-78
2022/01/30 10:08:48;;;;;;;5.57;2.08;;;9.60;99.90;;;;;;5077092;28;20040;-78
2022/01/30 10:11:34;;;;;;;5.70;2.38;;;9.70;99.90;;;;;;5073034;28;20549;-78
2022/01/30 10:14:20;;;;;;;8.13;2.08;;;9.30;99.90;;;;;;5077137;28;20051;-78
2022/01/30 10:16:50;;;;;;;9.35;1.75;;;8.60;99.90;;;;;;5072348;28;20060;-80
2022/01/30 10:19:20;;;;;;;7.32;1.92;;;9.60;99.90;;;;;;5094049;28;20093;-77
2022/01/30 10:22:10;;;;;;;5.00;2.10;;;10.00;99.90;;;;;;5091562;28;20497;-83
2022/01/30 10:24:38;;;;;;;6.25;2.08;;;9.30;99.90;;;;;;5065783;28;20037;-78
2022/01/30 10:27:24;;;;;;;5.38;2.38;;;9.10;99.90;;;;;;5068581;28;20481;-79
2022/01/30 10:29:58;;;;;;;6.72;2.38;;;9.10;99.90;;;;;;5084335;28;20040;-79
2022/01/30 10:32:27;;;;;;;10.77;2.38;;;9.20;99.90;;;;;;5089319;28;20044;-78
2022/01/30 10:35:07;;;;;;;12.70;3.40;;;8.80;99.90;;;;;;5074268;28;20130;-78
2022/01/30 10:37:39;;;;;;;6.13;2.53;;;9.40;99.90;;;;;;5079368;28;20063;-79
2022/01/30 10:40:22;;;;;;;6.90;2.70;;;9.90;99.90;;;;;;5087778;28;20132;-79
2022/01/30 10:42:57;;;;;;;10.02;2.25;;;9.80;99.90;;;;;;5070892;28;20056;-79
2022/01/30 10:45:28;;;;;;;7.05;3.25;;;9.60;99.90;;;;;;5080643;28;20039;-79
2022/01/30 10:48:17;;;;;;;4.70;2.20;;;9.40;99.90;;;;;;5069332;28;20139;-80
2022/01/30 10:50:47;;;;;;;9.73;2.60;;;9.60;99.90;;;;;;5087726;28;20166;-81
2022/01/30 10:53:32;;;;;;;3.15;2.75;;;9.70;99.90;;;;;;5089650;28;20530;-80
2022/01/30 10:56:30;;;;;;;9.73;2.47;;;9.40;99.90;;;;;;5070457;28;20040;-80
2022/01/30 10:59:10;;;;;;;6.10;2.10;;;9.70;99.90;;;;;;5077884;28;20045;-78
2022/01/30 11:01:50;;;;;;;4.97;2.33;;;9.50;99.90;;;;;;5090662;28;20561;-80
2022/01/30 11:04:36;;;;;;;11.55;2.33;;;9.40;99.90;;;;;;5088518;28;20071;-80
2022/01/30 11:07:03;;;;;;;6.80;2.72;;;10.00;99.90;;;;;;5071238;28;20079;-79
2022/01/30 11:09:46;;;;;;;6.45;1.90;;;9.60;99.90;;;;;;5072911;28;20049;-79
2022/01/30 11:12:15;;;;;;;11.30;2.97;;;9.60;99.90;;;;;;5075402;28;20043;-79
2022/01/30 11:17:27;;;;;;;5.22;1.85;;;9.20;99.90;;;;;;5071814;28;20044;-80
2022/01/30 11:19:56;;;;;;;3.75;2.15;;;9.90;99.90;;;;;;5093248;28;20119;-80
2022/01/30 11:22:30;;;;;;;11.43;2.85;;;9.90;99.90;;;;;;5090715;28;20076;-80
2022/01/30 11:25:08;;;;;;;5.03;2.10;;;10.20;99.90;;;;;;5089815;28;20051;-79
2022/01/30 11:27:37;;;;;;;3.65;1.75;;;8.90;99.90;;;;;;5073422;28;20541;-81
2022/01/30 11:30:07;;;;;;;2.83;1.77;;;9.50;99.90;;;;;;5075859;28;20514;-80
2022/01/30 11:32:36;;;;;;;9.45;2.13;;;9.90;99.90;;;;;;5074654;28;20041;-80
2022/01/30 11:35:04;;;;;;;10.85;3.60;;;10.00;99.90;;;;;;5069439;28;20098;-80
2022/01/30 11:37:33;;;;;;;4.95;1.95;;;10.10;99.90;;;;;;5072406;28;20047;-80
2022/01/30 11:40:02;;;;;;;3.33;2.90;;;10.10;99.90;;;;;;5087264;28;20081;-79
2022/01/30 11:42:40;;;;;;;10.52;2.97;;;10.50;99.90;;;;;;5072458;28;20123;-79
2022/01/30 11:45:09;;;;;;;10.10;2.10;;;10.60;99.90;;;;;;5073144;28;20123;-78
2022/01/30 11:48:04;;;;;;;10.07;2.28;;;9.70;99.90;;;;;;5085999;28;20071;-80
2022/01/30 11:50:36;;;;;;;5.13;2.00;;;9.80;99.90;;;;;;5091746;28;20103;-84
2022/01/30 11:53:03;;;;;;;;;;;10.40;99.90;;;;;;5091395;28;20040;-76
2022/01/30 11:55:54;;;;;;;6.30;2.17;;;10.10;99.90;;;;;;5097853;28;19963;-80
2022/01/30 11:58:56;;;;;;;30.05;8.40;;;10.30;99.90;;;;;;5073053;28;21007;-80
2022/01/30 12:01:35;;;;;;;11.70;3.65;;;10.00;99.90;;;;;;5070225;28;20041;-78
2022/01/30 12:04:10;;;;;;;26.75;8.85;;;9.40;99.90;;;;;;5072596;28;20545;-78
2022/01/30 12:06:47;;;;;;;17.90;5.53;;;10.00;99.90;;;;;;5083941;28;20040;-81
2022/01/30 12:09:19;;;;;;;14.02;4.63;;;11.20;99.90;;;;;;5067517;28;20581;-78
2022/01/30 12:11:51;;;;;;;11.57;3.90;;;10.30;99.90;;;;;;5072180;28;20465;-80
2022/01/30 12:14:20;;;;;;;4.43;2.22;;;10.70;99.90;;;;;;5072968;28;20048;-78
2022/01/30 12:16:51;;;;;;;9.00;2.70;;;11.10;99.90;;;;;;5087185;28;20032;-78
2022/01/30 12:19:42;;;;;;;3.60;2.10;;;10.40;99.90;;;;;;5086155;28;20040;-82
2022/01/30 12:22:18;;;;;;;7.03;2.97;;;10.40;99.90;;;;;;5069432;28;20059;-77
2022/01/30 12:24:45;;;;;;;11.10;2.30;;;11.10;99.90;;;;;;5080188;28;20855;-78
2022/01/30 12:27:12;;;;;;;13.27;3.83;;;12.40;99.90;;;;;;5077225;28;20046;-80
2022/01/30 12:30:03;;;;;;;7.95;3.05;;;11.60;99.90;;;;;;5074455;28;20513;-78
2022/01/30 12:32:39;;;;;;;8.83;2.40;;;11.30;99.90;;;;;;5077555;28;20080;-79
2022/01/30 12:35:10;;;;;;;6.75;2.35;;;11.80;99.90;;;;;;5079132;28;20527;-77
2022/01/30 12:37:37;;;;;;;10.38;2.20;;;12.30;99.90;;;;;;5102270;28;20044;-78
2022/01/30 12:40:17;;;;;;;6.97;2.67;;;12.20;99.90;;;;;;5075309;28;20040;-79
2022/01/30 12:43:15;;;;;;;5.60;2.75;;;11.90;99.90;;;;;;5078313;28;20087;-82
2022/01/30 12:45:49;;;;;;;12.50;5.30;;;12.50;99.90;;;;;;5077669;28;20085;-80
2022/01/30 12:48:17;;;;;;;14.32;4.65;;;10.90;99.90;;;;;;5079216;28;20060;-80
2022/01/30 12:51:18;;;;;;;;;;;;;;;;;;;;;
2022/01/30 12:54:04;;;;;;;6.93;2.72;;;11.80;99.90;;;;;;5096011;28;44086;-80
2022/01/30 12:56:36;;;;;;;5.95;2.35;;;12.30;99.90;;;;;;5078987;28;20402;-80
2022/01/30 12:59:37;;;;;;;11.10;2.22;;;11.80;99.90;;;;;;5091591;28;20040;-81
2022/01/30 13:02:39;;;;;;;;;;;;;;;;;;;;;
2022/01/30 13:05:36;;;;;;;20.58;6.85;;;12.10;99.90;;;;;;5094525;28;44277;-81
2022/01/30 13:08:16;;;;;;;12.32;3.88;;;13.10;99.90;;;;;;5083033;28;20050;-81
2022/01/30 13:10:55;;;;;;;11.25;3.55;;;13.50;99.90;;;;;;5090788;28;20040;-80
2022/01/30 13:13:55;;;;;;;9.18;4.68;;;12.10;99.90;;;;;;5077972;28;20525;-81
2022/01/30 13:16:42;;;;;;;8.95;3.17;;;9.40;99.90;;;;;;5075532;28;20049;-86
2022/01/30 13:19:28;;;;;;;25.88;5.82;;;9.60;99.90;;;;;;5094776;28;20072;-79
2022/01/30 13:21:54;;;;;;;14.43;3.20;;;12.00;99.90;;;;;;5088112;28;20036;-79
2022/01/30 13:24:31;;;;;;;9.60;3.00;;;11.30;99.90;;;;;;5069967;28;20147;-79
2022/01/30 13:27:09;;;;;;;10.95;2.42;;;11.00;99.90;;;;;;5093579;28;20040;-79
2022/01/30 13:29:40;;;;;;;6.30;2.70;;;11.20;99.90;;;;;;5069309;28;20044;-79
2022/01/30 13:32:20;;;;;;;7.75;3.40;;;10.80;99.90;;;;;;5072269;28;20039;-79
2022/01/30 13:34:49;;;;;;;9.30;1.98;;;10.30;99.90;;;;;;5088319;28;20050;-78
2022/01/30 13:37:20;;;;;;;6.32;2.10;;;10.70;99.90;;;;;;5079678;28;20123;-79
2022/01/30 13:42:53;;;;;;;10.68;2.20;;;11.10;99.90;;;;;;5087629;28;20044;-79
2022/01/30 13:48:04;;;;;;;17.30;4.78;;;10.70;99.90;;;;;;5087171;28;20496;-79
2022/01/30 13:50:43;;;;;;;9.00;2.72;;;10.10;99.90;;;;;;5086964;28;20042;-80
2022/01/30 13:53:25;;;;;;;6.70;2.40;;;11.00;99.90;;;;;;5065772;28;20154;-79
2022/01/30 13:55:59;;;;;;;5.78;1.98;;;10.90;99.90;;;;;;5094573;28;20129;-79
2022/01/30 13:58:47;;;;;;;5.95;2.30;;;10.40;99.90;;;;;;5089461;28;20131;-79
2022/01/30 14:01:18;;;;;;;8.00;1.80;;;12.30;99.90;;;;;;5065866;28;20122;-79
2022/01/30 14:03:50;;;;;;;7.32;1.95;;;11.80;99.90;;;;;;5066813;28;20055;-79
2022/01/30 14:06:26;;;;;;;6.18;2.00;;;10.70;99.90;;;;;;5067600;28;20044;-79
2022/01/30 14:09:03;;;;;;;8.07;1.95;;;10.70;99.90;;;;;;5069935;28;20052;-79
2022/01/30 14:11:35;;;;;;;5.97;1.73;;;11.70;99.90;;;;;;5077049;28;20602;-79
2022/01/30 14:14:20;;;;;;;;;;;10.90;99.90;;;;;;5077319;28;20550;-79